createdAt,value
2018-06-16T00:00:32.543Z,17.01
2018-06-16T00:01:41.406Z,17.03
2018-06-16T00:02:50.265Z,16.94
2018-06-16T00:03:59.406Z,16.97
2018-06-16T00:05:08.590Z,17.08
2018-06-16T00:06:17.451Z,16.97
2018-06-16T00:07:26.309Z,16.97
2018-06-16T00:08:35.172Z,16.93
2018-06-16T00:09:44.035Z,16.97
2018-06-16T00:10:53.249Z,16.91
2018-06-16T00:12:02.113Z,16.94
2018-06-16T00:13:11.257Z,16.98
2018-06-16T00:14:20.116Z,17.03
2018-06-16T00:15:28.975Z,17
2018-06-16T00:16:38.216Z,17.01
2018-06-16T00:17:47.351Z,17.04
2018-06-16T00:18:56.211Z,17.01
2018-06-16T00:20:05.349Z,16.97
2018-06-16T00:21:14.210Z,16.89
2018-06-16T00:22:23.123Z,16.91
2018-06-16T00:23:31.982Z,16.97
2018-06-16T00:24:40.847Z,16.98
2018-06-16T00:25:49.702Z,17.04
2018-06-16T00:26:58.563Z,16.91
2018-06-16T00:28:07.575Z,16.97
2018-06-16T00:29:16.435Z,16.88
2018-06-16T00:30:25.297Z,16.97
2018-06-16T00:31:34.443Z,16.89
2018-06-16T00:32:43.305Z,16.94
2018-06-16T00:33:52.497Z,16.96
2018-06-16T00:35:01.355Z,16.93
2018-06-16T00:36:10.221Z,16.97
2018-06-16T00:37:19.085Z,17
2018-06-16T00:38:27.943Z,16.91
2018-06-16T00:39:37.354Z,16.97
2018-06-16T00:40:46.214Z,17
2018-06-16T00:41:55.079Z,16.98
2018-06-16T00:43:03.938Z,16.96
2018-06-16T00:44:12.802Z,16.96
2018-06-16T00:45:21.818Z,16.96
2018-06-16T00:46:30.672Z,16.94
2018-06-16T00:47:39.535Z,16.93
2018-06-16T00:48:48.397Z,16.89
2018-06-16T00:49:57.260Z,16.93
2018-06-16T00:51:06.749Z,16.88
2018-06-16T00:52:15.610Z,16.85
2018-06-16T00:53:24.472Z,16.78
2018-06-16T00:54:33.333Z,16.89
2018-06-16T00:55:42.196Z,16.88
2018-06-16T00:56:51.106Z,16.86
2018-06-16T00:57:59.969Z,16.85
2018-06-16T00:59:08.828Z,16.88
2018-06-16T01:00:17.692Z,16.83
2018-06-16T01:01:27.154Z,16.83
2018-06-16T01:02:36.114Z,16.85
2018-06-16T01:03:44.975Z,16.85
2018-06-16T01:04:54.114Z,16.82
2018-06-16T01:06:02.976Z,16.82
2018-06-16T01:07:12.116Z,16.75
2018-06-16T01:08:21.131Z,16.81
2018-06-16T01:09:29.991Z,16.79
2018-06-16T01:10:38.856Z,16.82
2018-06-16T01:11:47.713Z,16.81
2018-06-16T01:12:56.574Z,16.79
2018-06-16T01:14:05.433Z,16.78
2018-06-16T01:15:14.298Z,16.82
2018-06-16T01:16:23.540Z,16.7
2018-06-16T01:17:32.906Z,16.78
2018-06-16T01:18:42.059Z,16.81
2018-06-16T01:19:51.625Z,16.76
2018-06-16T01:21:00.762Z,16.88
2018-06-16T01:22:09.899Z,16.81
2018-06-16T01:23:19.035Z,16.89
2018-06-16T01:24:27.898Z,16.89
2018-06-16T01:25:36.760Z,16.89
2018-06-16T01:26:45.621Z,16.81
2018-06-16T01:27:54.488Z,16.81
2018-06-16T01:29:03.347Z,16.81
2018-06-16T01:30:12.209Z,16.85
2018-06-16T01:31:21.071Z,16.79
2018-06-16T01:32:29.931Z,16.81
2018-06-16T01:33:38.792Z,16.75
2018-06-16T01:34:47.655Z,16.79
2018-06-16T01:35:56.795Z,16.82
2018-06-16T01:37:05.804Z,16.81
2018-06-16T01:38:14.665Z,16.78
2018-06-16T01:39:23.530Z,16.79
2018-06-16T01:40:32.387Z,16.78
2018-06-16T01:41:41.246Z,16.71
2018-06-16T01:42:50.307Z,16.78
2018-06-16T01:43:59.165Z,16.78
2018-06-16T01:45:08.303Z,16.7
2018-06-16T01:46:17.164Z,16.73
2018-06-16T01:47:26.304Z,16.75
2018-06-16T01:48:35.497Z,16.76
2018-06-16T01:49:44.637Z,16.76
2018-06-16T01:50:53.505Z,16.76
2018-06-16T01:52:03.202Z,16.79
2018-06-16T01:53:12.064Z,16.81
2018-06-16T01:54:21.023Z,16.78
2018-06-16T01:55:30.160Z,16.81
2018-06-16T01:56:39.027Z,16.83
2018-06-16T01:57:48.167Z,16.79
2018-06-16T01:58:57.030Z,16.79
2018-06-16T02:00:05.992Z,16.88
2018-06-16T02:01:15.129Z,16.76
2018-06-16T02:02:23.990Z,16.78
2018-06-16T02:03:32.850Z,16.83
2018-06-16T02:04:41.712Z,16.78
2018-06-16T02:05:50.922Z,16.78
2018-06-16T02:06:59.788Z,16.82
2018-06-16T02:08:08.643Z,16.79
2018-06-16T02:09:17.503Z,16.76
2018-06-16T02:10:26.364Z,16.82
2018-06-16T02:11:35.274Z,16.75
2018-06-16T02:12:44.410Z,16.85
2018-06-16T02:13:53.269Z,16.82
2018-06-16T02:15:02.130Z,16.88
2018-06-16T02:16:10.992Z,16.73
2018-06-16T02:17:20.285Z,16.76
2018-06-16T02:18:29.144Z,16.79
2018-06-16T02:19:38.003Z,16.85
2018-06-16T02:20:46.863Z,16.85
2018-06-16T02:21:55.727Z,16.78
2018-06-16T02:23:04.744Z,16.79
2018-06-16T02:24:13.603Z,16.82
2018-06-16T02:25:22.464Z,16.81
2018-06-16T02:26:31.603Z,16.83
2018-06-16T02:27:40.462Z,16.83
2018-06-16T02:28:49.656Z,16.76
2018-06-16T02:29:58.518Z,16.81
2018-06-16T02:31:07.659Z,16.78
2018-06-16T02:32:16.797Z,16.83
2018-06-16T02:33:26.210Z,16.78
2018-06-16T02:34:35.822Z,16.76
2018-06-16T02:35:44.937Z,16.78
2018-06-16T02:36:54.083Z,16.79
2018-06-16T02:38:03.596Z,16.81
2018-06-16T02:39:12.462Z,16.83
2018-06-16T02:40:21.326Z,16.73
2018-06-16T02:41:30.189Z,16.71
2018-06-16T02:42:39.605Z,16.79
2018-06-16T02:43:49.031Z,16.79
2018-06-16T02:44:58.209Z,16.75
2018-06-16T02:46:07.220Z,16.79
2018-06-16T02:47:16.360Z,16.79
2018-06-16T02:48:25.783Z,16.78
2018-06-16T02:49:34.922Z,16.73
2018-06-16T02:50:44.061Z,16.78
2018-06-16T02:51:53.077Z,16.75
2018-06-16T02:53:02.511Z,16.71
2018-06-16T02:54:11.939Z,16.64
2018-06-16T02:55:21.641Z,16.61
2018-06-16T02:56:30.778Z,16.67
2018-06-16T02:57:39.639Z,16.71
2018-06-16T02:58:48.502Z,16.68
2018-06-16T02:59:57.641Z,16.71
2018-06-16T03:01:07.077Z,16.7
2018-06-16T03:02:16.212Z,16.63
2018-06-16T03:03:25.462Z,16.67
2018-06-16T03:04:34.221Z,16.63
2018-06-16T03:05:43.351Z,16.7
2018-06-16T03:06:52.760Z,16.56
2018-06-16T03:08:01.619Z,16.66
2018-06-16T03:09:10.855Z,16.67
2018-06-16T03:10:19.717Z,16.63
2018-06-16T03:11:28.582Z,16.66
2018-06-16T03:12:37.736Z,16.71
2018-06-16T03:13:46.883Z,16.57
2018-06-16T03:14:55.751Z,16.73
2018-06-16T03:16:05.218Z,16.7
2018-06-16T03:17:14.086Z,16.64
2018-06-16T03:18:23.221Z,16.57
2018-06-16T03:19:32.083Z,16.61
2018-06-16T03:20:41.043Z,16.52
2018-06-16T03:21:49.904Z,16.58
2018-06-16T03:22:58.770Z,16.57
2018-06-16T03:24:07.628Z,16.6
2018-06-16T03:25:16.492Z,16.6
2018-06-16T03:26:25.701Z,16.57
2018-06-16T03:27:34.840Z,16.6
2018-06-16T03:28:43.701Z,16.56
2018-06-16T03:29:52.841Z,16.58
2018-06-16T03:31:02.528Z,16.57
2018-06-16T03:32:11.669Z,16.52
2018-06-16T03:33:20.807Z,16.53
2018-06-16T03:34:29.671Z,16.66
2018-06-16T03:35:38.530Z,16.61
2018-06-16T03:36:47.388Z,16.63
2018-06-16T03:37:56.252Z,16.67
2018-06-16T03:39:05.115Z,16.58
2018-06-16T03:40:13.974Z,16.56
2018-06-16T03:41:22.834Z,16.61
2018-06-16T03:42:31.698Z,16.67
2018-06-16T03:43:40.981Z,16.58
2018-06-16T03:44:50.130Z,16.7
2018-06-16T03:45:59.269Z,16.6
2018-06-16T03:47:08.423Z,16.58
2018-06-16T03:48:17.282Z,16.58
2018-06-16T03:49:26.294Z,16.66
2018-06-16T03:50:35.155Z,16.66
2018-06-16T03:51:44.298Z,16.7
2018-06-16T03:52:53.440Z,16.71
2018-06-16T03:54:02.301Z,16.66
2018-06-16T03:55:11.598Z,16.64
2018-06-16T03:56:20.457Z,16.75
2018-06-16T03:57:29.319Z,16.68
2018-06-16T03:58:38.184Z,16.71
2018-06-16T03:59:47.048Z,16.7
2018-06-16T04:00:56.535Z,16.58
2018-06-16T04:02:05.396Z,16.58
2018-06-16T04:03:14.256Z,16.58
2018-06-16T04:04:23.118Z,16.58
2018-06-16T04:05:32.261Z,16.67
2018-06-16T04:06:41.505Z,16.56
2018-06-16T04:07:50.364Z,16.7
2018-06-16T04:08:59.224Z,16.67
2018-06-16T04:10:08.086Z,16.63
2018-06-16T04:11:16.943Z,16.73
2018-06-16T04:12:25.803Z,16.71
2018-06-16T04:13:34.662Z,16.7
2018-06-16T04:14:43.802Z,16.71
2018-06-16T04:15:52.665Z,16.67
2018-06-16T04:17:01.808Z,16.67
2018-06-16T04:18:11.272Z,16.67
2018-06-16T04:19:20.408Z,16.68
2018-06-16T04:20:29.272Z,16.66
2018-06-16T04:21:38.414Z,16.67
2018-06-16T04:22:47.276Z,16.7
2018-06-16T04:23:56.297Z,16.73
2018-06-16T04:25:05.728Z,16.67
2018-06-16T04:26:14.591Z,16.7
2018-06-16T04:27:23.448Z,16.71
2018-06-16T04:28:32.313Z,16.73
2018-06-16T04:29:41.798Z,16.71
2018-06-16T04:30:50.658Z,16.7
2018-06-16T04:31:59.590Z,16.75
2018-06-16T04:33:08.380Z,16.73
2018-06-16T04:34:17.241Z,16.73
2018-06-16T04:35:26.102Z,16.75
2018-06-16T04:36:35.520Z,16.78
2018-06-16T04:37:44.381Z,16.78
2018-06-16T04:38:53.241Z,16.76
2018-06-16T04:40:02.107Z,16.75
2018-06-16T04:41:11.949Z,16.76
2018-06-16T04:42:20.809Z,16.79
2018-06-16T04:43:29.667Z,16.73
2018-06-16T04:44:38.529Z,16.82
2018-06-16T04:45:47.454Z,16.89
2018-06-16T04:46:57.521Z,16.88
2018-06-16T04:48:06.391Z,16.83
2018-06-16T04:49:15.227Z,16.83
2018-06-16T04:50:24.100Z,16.79
2018-06-16T04:51:32.952Z,16.83
2018-06-16T04:52:42.466Z,16.93
2018-06-16T04:53:51.325Z,16.93
2018-06-16T04:55:00.190Z,16.89
2018-06-16T04:56:09.057Z,16.88
2018-06-16T04:57:17.917Z,17.03
2018-06-16T04:58:26.776Z,17.04
2018-06-16T04:59:35.920Z,16.97
2018-06-16T05:00:44.780Z,16.98
2018-06-16T05:01:54.247Z,17.04
2018-06-16T05:03:03.953Z,17
2018-06-16T05:04:12.966Z,17.04
2018-06-16T05:05:21.830Z,17.03
2018-06-16T05:06:30.693Z,16.97
2018-06-16T05:07:39.554Z,17.11
2018-06-16T05:08:48.421Z,17.06
2018-06-16T05:09:57.934Z,17.08
2018-06-16T05:11:07.071Z,17.11
2018-06-16T05:12:15.933Z,17.18
2018-06-16T05:13:25.073Z,17.08
2018-06-16T05:14:33.933Z,17.07
2018-06-16T05:15:42.794Z,17.12
2018-06-16T05:16:51.973Z,17.14
2018-06-16T05:18:01.111Z,17.21
2018-06-16T05:19:10.246Z,17.22
2018-06-16T05:20:19.109Z,17.16
2018-06-16T05:21:28.122Z,17.22
2018-06-16T05:22:36.984Z,17.26
2018-06-16T05:23:46.124Z,17.23
2018-06-16T05:24:54.985Z,17.33
2018-06-16T05:26:04.123Z,17.36
2018-06-16T05:27:13.373Z,17.4
2018-06-16T05:28:22.236Z,17.4
2018-06-16T05:29:31.098Z,17.4
2018-06-16T05:30:39.958Z,17.4
2018-06-16T05:31:48.820Z,17.48
2018-06-16T05:32:57.680Z,17.52
2018-06-16T05:34:06.559Z,17.52
2018-06-16T05:35:15.700Z,17.51
2018-06-16T05:36:24.563Z,17.58
2018-06-16T05:37:33.423Z,17.56
2018-06-16T05:38:42.434Z,17.51
2018-06-16T05:39:51.292Z,17.58
2018-06-16T05:41:00.154Z,17.49
2018-06-16T05:42:09.301Z,17.63
2018-06-16T05:43:18.163Z,17.62
2018-06-16T05:44:27.025Z,17.62
2018-06-16T05:45:35.890Z,17.7
2018-06-16T05:46:44.752Z,17.75
2018-06-16T05:47:53.615Z,17.75
2018-06-16T05:49:02.476Z,17.84
2018-06-16T05:50:11.766Z,17.87
2018-06-16T05:51:20.825Z,17.89
2018-06-16T05:52:29.701Z,17.89
2018-06-16T05:53:38.563Z,18
2018-06-16T05:54:47.425Z,18
2018-06-16T05:55:56.287Z,18.02
2018-06-16T05:57:05.148Z,18
2018-06-16T05:58:14.015Z,18.02
2018-06-16T05:59:22.875Z,18.02
2018-06-16T06:00:32.070Z,18.12
2018-06-16T06:01:40.910Z,18.05
2018-06-16T06:02:49.883Z,18.02
2018-06-16T06:03:58.745Z,18.07
2018-06-16T06:05:07.607Z,18.11
2018-06-16T06:06:16.747Z,18.14
2018-06-16T06:07:25.608Z,18.15
2018-06-16T06:08:34.747Z,18.18
2018-06-16T06:09:43.611Z,18.11
2018-06-16T06:10:52.474Z,18.2
2018-06-16T06:12:01.346Z,18.15
2018-06-16T06:13:10.198Z,18.18
2018-06-16T06:14:19.059Z,18.2
2018-06-16T06:15:27.921Z,18.18
2018-06-16T06:16:36.783Z,18.25
2018-06-16T06:17:45.644Z,18.3
2018-06-16T06:18:54.793Z,18.18
2018-06-16T06:20:03.650Z,18.25
2018-06-16T06:21:12.612Z,18.21
2018-06-16T06:22:21.475Z,18.26
2018-06-16T06:23:30.617Z,18.27
2018-06-16T06:24:39.481Z,18.27
2018-06-16T06:25:48.344Z,18.37
2018-06-16T06:26:57.559Z,18.45
2018-06-16T06:28:06.422Z,18.41
2018-06-16T06:29:15.283Z,18.47
2018-06-16T06:30:24.146Z,18.52
2018-06-16T06:31:33.014Z,18.44
2018-06-16T06:32:41.879Z,18.51
2018-06-16T06:33:50.745Z,18.54
2018-06-16T06:34:59.609Z,18.62
2018-06-16T06:36:08.471Z,18.66
2018-06-16T06:37:17.640Z,18.72
2018-06-16T06:38:26.652Z,18.65
2018-06-16T06:39:35.514Z,18.73
2018-06-16T06:40:44.377Z,18.73
2018-06-16T06:41:53.520Z,18.84
2018-06-16T06:43:02.383Z,18.82
2018-06-16T06:44:11.601Z,18.95
2018-06-16T06:45:20.463Z,18.91
2018-06-16T06:46:29.330Z,18.9
2018-06-16T06:47:38.477Z,18.94
2018-06-16T06:48:47.343Z,19.06
2018-06-16T06:49:56.406Z,19.08
2018-06-16T06:51:05.546Z,19.11
2018-06-16T06:52:14.414Z,19.19
2018-06-16T06:53:23.276Z,19.23
2018-06-16T06:54:32.141Z,19.31
2018-06-16T06:55:41.002Z,19.37
2018-06-16T06:56:50.433Z,19.4
2018-06-16T06:57:59.424Z,19.54
2018-06-16T06:59:09.229Z,19.62
2018-06-16T07:00:18.093Z,19.61
2018-06-16T07:01:27.006Z,19.65
2018-06-16T07:02:35.870Z,19.65
2018-06-16T07:03:44.734Z,19.59
2018-06-16T07:04:53.597Z,19.71
2018-06-16T07:06:02.463Z,19.71
2018-06-16T07:07:11.674Z,19.81
2018-06-16T07:08:20.538Z,19.81
2018-06-16T07:09:29.459Z,19.83
2018-06-16T07:10:38.620Z,19.86
2018-06-16T07:11:47.429Z,19.77
2018-06-16T07:12:56.296Z,19.94
2018-06-16T07:14:05.435Z,19.88
2018-06-16T07:15:14.297Z,19.95
2018-06-16T07:16:23.162Z,19.92
2018-06-16T07:17:32.028Z,19.96
2018-06-16T07:18:40.942Z,20.05
2018-06-16T07:19:50.089Z,20.02
2018-06-16T07:20:58.952Z,20.06
2018-06-16T07:22:08.090Z,20.1
2018-06-16T07:23:16.955Z,20.17
2018-06-16T07:24:25.921Z,20.11
2018-06-16T07:25:34.787Z,20.11
2018-06-16T07:26:43.647Z,20.05
2018-06-16T07:27:52.511Z,20.14
2018-06-16T07:29:01.375Z,20.1
2018-06-16T07:30:10.721Z,20.1
2018-06-16T07:31:19.863Z,20.21
2018-06-16T07:32:28.740Z,20.21
2018-06-16T07:33:37.595Z,20.26
2018-06-16T07:34:47.016Z,20.39
2018-06-16T07:35:55.876Z,20.36
2018-06-16T07:37:04.743Z,20.47
2018-06-16T07:38:13.605Z,20.47
2018-06-16T07:39:22.468Z,20.33
2018-06-16T07:40:31.332Z,20.31
2018-06-16T07:41:40.472Z,20.35
2018-06-16T07:42:49.339Z,20.5
2018-06-16T07:43:58.478Z,20.52
2018-06-16T07:45:07.897Z,20.52
2018-06-16T07:46:17.037Z,20.5
2018-06-16T07:47:26.337Z,20.55
2018-06-16T07:48:35.205Z,20.66
2018-06-16T07:49:44.067Z,20.59
2018-06-16T07:50:52.932Z,20.62
2018-06-16T07:52:02.075Z,20.66
2018-06-16T07:53:11.369Z,20.73
2018-06-16T07:54:20.234Z,20.76
2018-06-16T07:55:29.373Z,20.91
2018-06-16T07:56:38.283Z,20.94
2018-06-16T07:57:47.165Z,20.94
2018-06-16T07:58:56.083Z,20.98
2018-06-16T08:00:04.951Z,21.04
2018-06-16T08:01:13.817Z,20.97
2018-06-16T08:02:22.680Z,21.12
2018-06-16T08:03:31.545Z,21.12
2018-06-16T08:04:40.468Z,21.03
2018-06-16T08:05:49.611Z,21.12
2018-06-16T08:06:58.482Z,21.21
2018-06-16T08:08:07.621Z,21.37
2018-06-16T08:09:16.485Z,21.28
2018-06-16T08:10:25.676Z,21.34
2018-06-16T08:11:34.540Z,21.43
2018-06-16T08:12:43.441Z,21.49
2018-06-16T08:13:52.628Z,21.46
2018-06-16T08:15:01.493Z,21.58
2018-06-16T08:16:10.564Z,21.59
2018-06-16T08:17:19.450Z,21.64
2018-06-16T08:18:28.325Z,21.62
2018-06-16T08:19:37.205Z,21.67
2018-06-16T08:20:46.072Z,21.64
2018-06-16T08:21:54.987Z,21.74
2018-06-16T08:23:04.198Z,21.75
2018-06-16T08:24:13.061Z,21.83
2018-06-16T08:25:21.926Z,21.74
2018-06-16T08:26:30.795Z,21.8
2018-06-16T08:27:39.808Z,21.8
2018-06-16T08:28:48.675Z,21.86
2018-06-16T08:29:57.544Z,21.92
2018-06-16T08:31:06.411Z,21.98
2018-06-16T08:32:15.281Z,22.03
2018-06-16T08:33:24.461Z,22.03
2018-06-16T08:34:33.335Z,22.06
2018-06-16T08:35:42.485Z,22.1
2018-06-16T08:36:51.634Z,22.17
2018-06-16T08:38:00.778Z,22.12
2018-06-16T08:39:09.644Z,22.2
2018-06-16T08:40:18.787Z,22.36
2018-06-16T08:41:27.653Z,22.3
2018-06-16T08:42:36.519Z,22.43
2018-06-16T08:43:45.401Z,22.47
2018-06-16T08:44:54.370Z,22.54
2018-06-16T08:46:03.238Z,22.61
2018-06-16T08:47:12.104Z,22.54
2018-06-16T08:48:21.010Z,22.65
2018-06-16T08:49:29.979Z,22.68
2018-06-16T08:50:39.450Z,22.68
2018-06-16T08:51:48.594Z,22.54
2018-06-16T08:52:57.737Z,22.36
2018-06-16T08:54:06.606Z,22.46
2018-06-16T08:55:15.483Z,22.51
2018-06-16T08:56:24.452Z,22.62
2018-06-16T08:57:33.325Z,22.68
2018-06-16T08:58:42.185Z,22.64
2018-06-16T08:59:51.911Z,22.68
2018-06-16T09:01:00.850Z,22.67
2018-06-16T09:02:09.764Z,22.7
2018-06-16T09:03:18.627Z,22.58
2018-06-16T09:04:27.500Z,22.54
2018-06-16T09:05:36.370Z,22.64
2018-06-16T09:06:45.245Z,22.67
2018-06-16T09:07:54.145Z,22.85
2018-06-16T09:09:03.292Z,22.65
2018-06-16T09:10:12.335Z,22.75
2018-06-16T09:11:21.641Z,22.85
2018-06-16T09:12:30.832Z,22.91
2018-06-16T09:13:39.698Z,22.98
2018-06-16T09:14:48.842Z,22.95
2018-06-16T09:15:57.709Z,22.92
2018-06-16T09:17:06.574Z,23
2018-06-16T09:18:15.439Z,23.07
2018-06-16T09:19:24.453Z,23.04
2018-06-16T09:20:33.371Z,23.12
2018-06-16T09:21:42.240Z,23.15
2018-06-16T09:22:51.108Z,22.98
2018-06-16T09:23:59.973Z,22.88
2018-06-16T09:25:08.944Z,22.82
2018-06-16T09:26:18.089Z,23
2018-06-16T09:27:26.958Z,23.04
2018-06-16T09:28:35.825Z,23.17
2018-06-16T09:29:45.251Z,23.32
2018-06-16T09:30:54.545Z,23.4
2018-06-16T09:32:03.413Z,23.33
2018-06-16T09:33:12.279Z,23.5
2018-06-16T09:34:21.429Z,23.53
2018-06-16T09:35:30.856Z,23.51
2018-06-16T09:36:39.881Z,23.54
2018-06-16T09:37:48.734Z,23.51
2018-06-16T09:38:57.874Z,23.61
2018-06-16T09:40:07.296Z,23.57
2018-06-16T09:41:16.165Z,23.58
2018-06-16T09:42:25.426Z,23.63
2018-06-16T09:43:34.550Z,23.73
2018-06-16T09:44:43.414Z,23.72
2018-06-16T09:45:53.128Z,23.84
2018-06-16T09:47:01.997Z,23.91
2018-06-16T09:48:10.983Z,23.93
2018-06-16T09:49:20.466Z,23.9
2018-06-16T09:50:29.332Z,23.87
2018-06-16T09:51:38.199Z,23.88
2018-06-16T09:52:47.068Z,23.79
2018-06-16T09:53:55.935Z,23.68
2018-06-16T09:55:04.801Z,23.73
2018-06-16T09:56:13.671Z,23.8
2018-06-16T09:57:22.540Z,23.87
2018-06-16T09:58:31.408Z,23.97
2018-06-16T09:59:40.275Z,23.93
2018-06-16T10:00:49.142Z,24.1
2018-06-16T10:01:58.008Z,23.97
2018-06-16T10:03:06.877Z,24.06
2018-06-16T10:04:15.747Z,24.06
2018-06-16T10:05:24.890Z,24.05
2018-06-16T10:06:34.034Z,24.13
2018-06-16T10:07:43.179Z,24.03
2018-06-16T10:08:52.047Z,23.91
2018-06-16T10:10:00.913Z,23.76
2018-06-16T10:11:09.778Z,23.9
2018-06-16T10:12:18.647Z,23.75
2018-06-16T10:13:27.515Z,23.94
2018-06-16T10:14:36.384Z,23.93
2018-06-16T10:15:45.250Z,24.03
2018-06-16T10:16:54.119Z,24.2
2018-06-16T10:18:02.987Z,24.24
2018-06-16T10:19:11.853Z,24.16
2018-06-16T10:20:20.720Z,24.35
2018-06-16T10:21:29.590Z,24.34
2018-06-16T10:22:38.739Z,24.42
2018-06-16T10:23:47.607Z,24.24
2018-06-16T10:24:56.755Z,24.39
2018-06-16T10:26:06.140Z,24.45
2018-06-16T10:27:15.045Z,24.52
2018-06-16T10:28:23.911Z,24.49
2018-06-16T10:29:32.781Z,24.52
2018-06-16T10:30:41.928Z,24.47
2018-06-16T10:31:50.795Z,24.6
2018-06-16T10:32:59.660Z,24.61
2018-06-16T10:34:08.528Z,24.67
2018-06-16T10:35:17.680Z,24.62
2018-06-16T10:36:26.661Z,24.78
2018-06-16T10:37:35.803Z,24.77
2018-06-16T10:38:44.671Z,24.8
2018-06-16T10:39:53.539Z,24.78
2018-06-16T10:41:02.407Z,24.69
2018-06-16T10:42:11.725Z,24.81
2018-06-16T10:43:20.595Z,24.83
2018-06-16T10:44:29.741Z,24.8
2018-06-16T10:45:38.608Z,24.71
2018-06-16T10:46:47.476Z,24.77
2018-06-16T10:47:56.393Z,24.87
2018-06-16T10:49:05.543Z,24.87
2018-06-16T10:50:14.413Z,24.83
2018-06-16T10:51:23.281Z,24.85
2018-06-16T10:52:32.151Z,24.91
2018-06-16T10:53:41.070Z,24.88
2018-06-16T10:54:49.938Z,24.8
2018-06-16T10:55:58.807Z,24.83
2018-06-16T10:57:07.674Z,24.83
2018-06-16T10:58:16.544Z,24.9
2018-06-16T10:59:25.559Z,24.98
2018-06-16T11:00:34.429Z,25.02
2018-06-16T11:01:43.298Z,24.98
2018-06-16T11:02:52.167Z,24.95
2018-06-16T11:04:01.043Z,25.03
2018-06-16T11:05:09.964Z,25.13
2018-06-16T11:06:19.115Z,25.21
2018-06-16T11:07:27.985Z,25.33
2018-06-16T11:08:36.852Z,25.33
2018-06-16T11:09:45.721Z,25.32
2018-06-16T11:10:54.837Z,25.43
2018-06-16T11:12:03.988Z,25.42
2018-06-16T11:13:13.135Z,25.39
2018-06-16T11:14:22.003Z,25.36
2018-06-16T11:15:30.871Z,25.4
2018-06-16T11:16:39.887Z,25.43
2018-06-16T11:17:48.757Z,25.39
2018-06-16T11:18:57.639Z,25.39
2018-06-16T11:20:06.771Z,25.3
2018-06-16T11:21:15.918Z,25.33
2018-06-16T11:22:24.786Z,25.25
2018-06-16T11:23:33.657Z,25.21
2018-06-16T11:24:42.801Z,25.14
2018-06-16T11:25:51.670Z,25.21
2018-06-16T11:27:00.813Z,25.3
2018-06-16T11:28:09.885Z,25.39
2018-06-16T11:29:18.753Z,25.39
2018-06-16T11:30:27.652Z,25.42
2018-06-16T11:31:36.488Z,25.57
2018-06-16T11:32:45.631Z,25.47
2018-06-16T11:33:54.512Z,25.39
2018-06-16T11:35:03.662Z,25.42
2018-06-16T11:36:12.529Z,25.54
2018-06-16T11:37:21.397Z,25.52
2018-06-16T11:38:30.546Z,25.5
2018-06-16T11:39:39.513Z,25.67
2018-06-16T11:40:48.389Z,25.67
2018-06-16T11:41:57.255Z,25.62
2018-06-16T11:43:06.128Z,25.67
2018-06-16T11:44:14.994Z,25.65
2018-06-16T11:45:23.863Z,25.65
2018-06-16T11:46:32.734Z,25.76
2018-06-16T11:47:41.885Z,25.9
2018-06-16T11:48:51.181Z,25.94
2018-06-16T11:50:00.425Z,25.95
2018-06-16T11:51:09.646Z,25.95
2018-06-16T11:52:18.514Z,26.05
2018-06-16T11:53:27.387Z,26.05
2018-06-16T11:54:36.255Z,26.13
2018-06-16T11:55:45.132Z,26.13
2018-06-16T11:56:54.328Z,26.17
2018-06-16T11:58:03.197Z,26.2
2018-06-16T11:59:12.064Z,26.07
2018-06-16T12:00:20.934Z,26.1
2018-06-16T12:01:29.806Z,25.92
2018-06-16T12:02:38.926Z,25.79
2018-06-16T12:03:47.794Z,25.79
2018-06-16T12:04:56.667Z,25.91
2018-06-16T12:06:05.535Z,26.02
2018-06-16T12:07:14.752Z,26.05
2018-06-16T12:08:25.127Z,26.07
2018-06-16T12:09:34.458Z,25.94
2018-06-16T12:10:43.330Z,25.95
2018-06-16T12:11:52.203Z,25.95
2018-06-16T12:13:01.619Z,25.88
2018-06-16T12:14:10.537Z,25.79
2018-06-16T12:15:19.408Z,25.73
2018-06-16T12:16:28.275Z,25.62
2018-06-16T12:17:37.144Z,25.61
2018-06-16T12:18:46.012Z,25.62
2018-06-16T12:19:54.979Z,25.65
2018-06-16T12:21:04.126Z,25.57
2018-06-16T12:22:12.998Z,25.62
2018-06-16T12:23:21.866Z,25.75
2018-06-16T12:24:31.011Z,25.88
2018-06-16T12:25:39.980Z,26.01
2018-06-16T12:26:48.850Z,26.12
2018-06-16T12:27:57.727Z,26.32
2018-06-16T12:29:06.602Z,26.47
2018-06-16T12:30:15.472Z,26.67
2018-06-16T12:31:24.695Z,26.66
2018-06-16T12:32:33.839Z,26.63
2018-06-16T12:33:42.714Z,26.63
2018-06-16T12:34:51.594Z,26.6
2018-06-16T12:36:00.738Z,26.73
2018-06-16T12:37:09.710Z,26.52
2018-06-16T12:38:18.580Z,26.51
2018-06-16T12:39:27.450Z,26.57
2018-06-16T12:40:36.322Z,26.44
2018-06-16T12:41:45.197Z,26.39
2018-06-16T12:42:54.164Z,26.37
2018-06-16T12:44:03.036Z,26.5
2018-06-16T12:45:11.907Z,26.36
2018-06-16T12:46:21.057Z,26.2
2018-06-16T12:47:29.928Z,26.26
2018-06-16T12:48:38.847Z,26.28
2018-06-16T12:49:47.718Z,26.26
2018-06-16T12:50:56.643Z,26.28
2018-06-16T12:52:05.532Z,26.39
2018-06-16T12:53:14.958Z,26.47
2018-06-16T12:54:24.182Z,26.67
2018-06-16T12:55:33.054Z,26.77
2018-06-16T12:56:42.002Z,26.76
2018-06-16T12:57:51.629Z,26.67
2018-06-16T12:59:01.134Z,26.63
2018-06-16T13:00:10.186Z,26.54
2018-06-16T13:01:19.334Z,26.45
2018-06-16T13:02:28.204Z,26.33
2018-06-16T13:03:37.074Z,26.48
2018-06-16T13:04:45.946Z,26.33
2018-06-16T13:05:54.816Z,26.26
2018-06-16T13:07:03.962Z,26.23
2018-06-16T13:08:12.832Z,26.28
2018-06-16T13:09:22.456Z,26.33
2018-06-16T13:10:31.373Z,26.32
2018-06-16T13:11:40.316Z,26.21
2018-06-16T13:12:49.190Z,26.12
2018-06-16T13:13:58.061Z,26.1
2018-06-16T13:15:07.493Z,26.28
2018-06-16T13:16:16.366Z,26.43
2018-06-16T13:17:25.512Z,26.47
2018-06-16T13:18:34.947Z,26.72
2018-06-16T13:19:43.818Z,26.8
2018-06-16T13:20:52.690Z,26.81
2018-06-16T13:22:01.840Z,26.92
2018-06-16T13:23:10.912Z,27
2018-06-16T13:24:19.787Z,26.87
2018-06-16T13:25:28.669Z,27.02
2018-06-16T13:26:37.822Z,26.8
2018-06-16T13:27:47.076Z,26.84
2018-06-16T13:28:56.324Z,26.97
2018-06-16T13:30:05.372Z,27.04
2018-06-16T13:31:14.654Z,27.13
2018-06-16T13:32:23.801Z,26.99
2018-06-16T13:33:32.671Z,27.14
2018-06-16T13:34:41.642Z,27.28
2018-06-16T13:35:50.514Z,27.25
2018-06-16T13:36:59.389Z,27.24
2018-06-16T13:38:08.260Z,27.28
2018-06-16T13:39:17.133Z,27.43
2018-06-16T13:40:26.359Z,27.47
2018-06-16T13:41:35.232Z,27.5
2018-06-16T13:42:44.118Z,27.55
2018-06-16T13:43:53.269Z,27.51
2018-06-16T13:45:02.416Z,27.77
2018-06-16T13:46:11.640Z,27.74
2018-06-16T13:47:20.515Z,27.72
2018-06-16T13:48:29.673Z,27.81
2018-06-16T13:49:39.100Z,27.67
2018-06-16T13:50:48.316Z,27.84
2018-06-16T13:51:57.655Z,28.18
2018-06-16T13:53:06.531Z,28.22
2018-06-16T13:54:15.404Z,28.3
2018-06-16T13:55:24.279Z,28.24
2018-06-16T13:56:33.156Z,28.41
2018-06-16T13:57:42.531Z,28.43
2018-06-16T13:58:51.900Z,28.36
2018-06-16T14:00:01.783Z,28.24
2018-06-16T14:01:11.625Z,28.21
2018-06-16T14:02:20.502Z,28.39
2018-06-16T14:03:29.437Z,28.52
2018-06-16T14:04:38.590Z,28.85
2018-06-16T14:05:47.468Z,28.7
2018-06-16T14:06:56.670Z,28.73
2018-06-16T14:08:05.545Z,28.77
2018-06-16T14:09:14.420Z,28.95
2018-06-16T14:10:23.295Z,29.09
2018-06-16T14:11:32.450Z,29.12
2018-06-16T14:12:41.606Z,29.26
2018-06-16T14:13:50.482Z,29.15
2018-06-16T14:14:59.713Z,29.11
2018-06-16T14:16:08.590Z,29.14
2018-06-16T14:17:17.468Z,28.8
2018-06-16T14:18:26.341Z,28.92
2018-06-16T14:19:35.217Z,28.89
2018-06-16T14:20:44.191Z,28.64
2018-06-16T14:21:53.069Z,28.77
2018-06-16T14:23:01.948Z,28.95
2018-06-16T14:24:10.824Z,28.96
2018-06-16T14:25:19.700Z,28.98
2018-06-16T14:26:28.730Z,28.96
2018-06-16T14:27:37.604Z,29.33
2018-06-16T14:28:46.483Z,29.28
2018-06-16T14:29:55.359Z,29.49
2018-06-16T14:31:04.238Z,29.28
2018-06-16T14:32:13.118Z,29.31
2018-06-16T14:33:22.272Z,29.37
2018-06-16T14:34:31.145Z,29.42
2018-06-16T14:35:40.022Z,29.34
2018-06-16T14:36:48.902Z,29.52
2018-06-16T14:37:57.828Z,29.28
2018-06-16T14:39:06.707Z,29.31
2018-06-16T14:40:15.581Z,29.48
2018-06-16T14:41:24.455Z,29.67
2018-06-16T14:42:33.619Z,29.61
2018-06-16T14:43:42.934Z,29.58
2018-06-16T14:44:51.811Z,29.86
2018-06-16T14:46:00.738Z,30.08
2018-06-16T14:47:09.676Z,30.15
2018-06-16T14:48:19.210Z,30.08
2018-06-16T14:49:28.286Z,29.78
2018-06-16T14:50:37.165Z,29.68
2018-06-16T14:51:46.041Z,29.46